createdAt,value
2019-04-16T00:01:11.292Z,21.73
2019-04-16T00:03:41.676Z,20.87
2019-04-16T00:06:28.955Z,20.60
2019-04-16T00:09:09.684Z,22.50
2019-04-16T00:11:49.766Z,21.87
2019-04-16T00:14:23.620Z,21.83
2019-04-16T00:16:53.107Z,22.00
2019-04-16T00:19:22.718Z,22.10
2019-04-16T00:22:06.069Z,19.47
2019-04-16T00:24:37.213Z,20.00
2019-04-16T00:27:06.821Z,19.27
2019-04-16T00:29:39.418Z,20.73
2019-04-16T00:32:09.738Z,19.47
2019-04-16T00:34:39.328Z,27.63
2019-04-16T00:37:08.817Z,23.47
2019-04-16T00:39:38.356Z,22.77
2019-04-16T00:42:08.150Z,27.90
2019-04-16T00:44:37.684Z,18.93
2019-04-16T00:47:07.222Z,23.93
2019-04-16T00:49:38.104Z,20.10
2019-04-16T00:52:07.733Z,22.77
2019-04-16T00:54:39.343Z,22.33
2019-04-16T00:57:08.457Z,25.10
2019-04-16T00:59:37.988Z,22.90
2019-04-16T01:02:07.498Z,24.70
2019-04-16T01:04:37.008Z,21.47
2019-04-16T01:07:06.809Z,29.17
2019-04-16T01:09:37.066Z,22.40
2019-04-16T01:12:06.572Z,21.37
2019-04-16T01:14:36.147Z,22.10
2019-04-16T01:17:05.801Z,28.73
2019-04-16T01:19:35.427Z,21.37
2019-04-16T01:22:05.002Z,26.10
2019-04-16T01:24:34.520Z,25.97
2019-04-16T01:27:04.293Z,23.63
2019-04-16T01:29:34.576Z,24.77
2019-04-16T01:32:09.846Z,24.27
2019-04-16T01:34:47.094Z,24.80
2019-04-16T01:37:25.715Z,22.40
2019-04-16T01:40:01.709Z,25.67
2019-04-16T01:42:31.877Z,21.67
2019-04-16T01:45:01.360Z,24.90
2019-04-16T01:47:35.951Z,26.60
2019-04-16T01:50:02.081Z,22.10
2019-04-16T01:52:31.581Z,23.60
2019-04-16T01:55:01.081Z,20.90
2019-04-16T01:57:31.326Z,22.17
2019-04-16T02:00:01.042Z,24.50
2019-04-16T02:02:30.531Z,22.30
2019-04-16T02:05:00.076Z,21.63
2019-04-16T02:07:29.581Z,27.73
2019-04-16T02:09:59.086Z,31.60
2019-04-16T02:12:28.597Z,20.90
2019-04-16T02:14:58.103Z,22.60
2019-04-16T02:17:27.760Z,21.50
2019-04-16T02:19:57.284Z,23.23
2019-04-16T02:22:26.784Z,23.90
2019-04-16T02:24:56.662Z,21.77
2019-04-16T02:27:26.989Z,25.10
2019-04-16T02:29:58.532Z,27.40
2019-04-16T02:32:27.893Z,24.23
2019-04-16T02:34:57.442Z,24.70
2019-04-16T02:37:26.951Z,22.97
2019-04-16T02:39:56.472Z,24.17
2019-04-16T02:42:30.820Z,24.40
2019-04-16T02:44:57.217Z,23.57
2019-04-16T02:47:26.797Z,34.43
2019-04-16T02:49:57.982Z,20.37
2019-04-16T02:52:29.265Z,26.50
2019-04-16T02:55:13.047Z,21.47
2019-04-16T02:58:01.785Z,25.37
2019-04-16T03:00:42.309Z,23.43
2019-04-16T03:03:31.407Z,26.03
2019-04-16T03:06:01.629Z,23.43
2019-04-16T03:08:33.430Z,27.53
2019-04-16T03:11:03.197Z,21.83
2019-04-16T03:13:32.731Z,25.07
2019-04-16T03:16:19.872Z,20.70
2019-04-16T03:19:00.021Z,21.43
2019-04-16T03:21:29.530Z,22.83
2019-04-16T03:23:59.040Z,24.60
2019-04-16T03:26:28.765Z,27.70
2019-04-16T03:28:59.158Z,19.27
2019-04-16T03:31:29.004Z,25.03
2019-04-16T03:33:58.603Z,20.50
2019-04-16T03:36:29.536Z,27.97
2019-04-16T03:38:59.344Z,27.10
2019-04-16T03:41:28.880Z,29.77
2019-04-16T03:43:58.457Z,25.60
2019-04-16T03:46:27.990Z,25.33
2019-04-16T03:48:57.485Z,23.50
2019-04-16T03:51:27.832Z,21.57
2019-04-16T03:53:57.343Z,26.40
2019-04-16T03:56:27.618Z,21.83
2019-04-16T03:58:58.281Z,25.23
2019-04-16T04:01:27.885Z,29.07
2019-04-16T04:03:58.350Z,21.93
2019-04-16T04:06:27.960Z,25.00
2019-04-16T04:08:57.463Z,30.80
2019-04-16T04:11:27.016Z,22.67
2019-04-16T04:13:56.529Z,26.30
2019-04-16T04:16:26.100Z,25.80
2019-04-16T04:18:55.716Z,26.60
2019-04-16T04:21:25.293Z,23.47
2019-04-16T04:23:57.549Z,23.30
2019-04-16T04:26:26.013Z,20.73
2019-04-16T04:28:55.504Z,26.27
2019-04-16T04:31:25.078Z,27.87
2019-04-16T04:33:54.745Z,28.40
2019-04-16T04:36:27.043Z,24.40
2019-04-16T04:38:55.437Z,25.40
2019-04-16T04:41:24.986Z,26.20
2019-04-16T04:43:54.465Z,31.27
2019-04-16T04:46:24.002Z,27.30
2019-04-16T04:48:55.723Z,26.77
2019-04-16T04:51:24.792Z,21.80
2019-04-16T04:53:54.257Z,23.67
2019-04-16T04:56:27.718Z,23.07
2019-04-16T04:58:55.015Z,26.97
2019-04-16T05:01:24.645Z,22.50
2019-04-16T05:03:55.786Z,26.70
2019-04-16T05:06:27.967Z,21.43
2019-04-16T05:09:00.341Z,19.77
2019-04-16T05:11:28.881Z,24.97
2019-04-16T05:13:58.358Z,23.83
2019-04-16T05:16:27.853Z,21.50
2019-04-16T05:18:57.472Z,22.57
2019-04-16T05:21:27.036Z,25.27
2019-04-16T05:23:57.546Z,23.80
2019-04-16T05:26:27.663Z,21.77
2019-04-16T05:28:58.797Z,22.20
2019-04-16T05:31:30.982Z,25.03
2019-04-16T05:34:02.354Z,23.47
2019-04-16T05:36:30.737Z,26.83
2019-04-16T05:39:03.675Z,21.00
2019-04-16T05:41:32.552Z,24.37
2019-04-16T05:44:02.367Z,22.77
2019-04-16T05:46:31.988Z,19.60
2019-04-16T05:49:01.767Z,20.97
2019-04-16T05:51:32.081Z,18.43
2019-04-16T05:54:13.270Z,21.50
2019-04-16T05:56:47.135Z,20.07
2019-04-16T05:59:16.628Z,23.50
2019-04-16T06:01:47.827Z,20.43
2019-04-16T06:04:17.509Z,19.90
2019-04-16T06:06:47.091Z,18.57
2019-04-16T06:09:16.603Z,21.83
2019-04-16T06:11:46.183Z,22.93
2019-04-16T06:14:19.166Z,21.00
2019-04-16T06:16:56.821Z,21.60
2019-04-16T06:19:46.450Z,28.00
2019-04-16T06:22:16.462Z,18.27
2019-04-16T06:25:08.287Z,18.03
2019-04-16T06:27:39.229Z,23.03
2019-04-16T06:30:22.426Z,25.87
2019-04-16T06:32:53.660Z,19.30
2019-04-16T06:35:27.268Z,22.73
2019-04-16T06:38:14.536Z,19.87
2019-04-16T06:40:48.803Z,22.53
2019-04-16T06:43:25.683Z,23.13
2019-04-16T06:46:08.302Z,36.30
2019-04-16T06:48:50.842Z,18.43
2019-04-16T06:51:43.400Z,21.70
2019-04-16T06:54:17.423Z,20.37
2019-04-16T06:56:54.677Z,23.40
2019-04-16T06:59:30.395Z,20.47
2019-04-16T07:02:19.474Z,19.53
2019-04-16T07:05:01.251Z,19.50
2019-04-16T07:07:45.839Z,18.23
2019-04-16T07:10:16.896Z,20.40
2019-04-16T07:12:46.634Z,17.10
2019-04-16T07:15:16.446Z,17.80
2019-04-16T07:17:46.058Z,29.17
2019-04-16T07:20:15.723Z,21.73
2019-04-16T07:22:45.429Z,18.33
2019-04-16T07:25:15.372Z,22.47
2019-04-16T07:27:57.299Z,22.30
2019-04-16T07:30:26.029Z,19.37
2019-04-16T07:33:00.571Z,16.90
2019-04-16T07:35:30.001Z,20.50
2019-04-16T07:38:04.925Z,22.33
2019-04-16T07:40:39.775Z,17.70
2019-04-16T07:43:31.043Z,23.70
2019-04-16T07:46:18.558Z,17.27
2019-04-16T07:48:51.487Z,25.13
2019-04-16T07:51:28.630Z,20.80
2019-04-16T07:54:05.941Z,22.60
2019-04-16T07:56:36.348Z,23.70
2019-04-16T07:59:05.944Z,17.40
2019-04-16T08:01:35.888Z,17.47
2019-04-16T08:04:05.605Z,20.97
2019-04-16T08:06:35.168Z,21.10
2019-04-16T08:09:07.016Z,21.37
2019-04-16T08:11:36.567Z,21.40
2019-04-16T08:14:09.810Z,36.80
2019-04-16T08:16:47.170Z,19.30
2019-04-16T08:19:08.666Z,21.20
2019-04-16T08:21:40.684Z,20.50
2019-04-16T08:24:11.038Z,20.93
2019-04-16T08:26:41.620Z,19.10
2019-04-16T08:29:11.965Z,17.70
2019-04-16T08:31:44.464Z,23.50
2019-04-16T08:34:14.331Z,18.40
2019-04-16T08:36:43.864Z,17.90
2019-04-16T08:39:14.956Z,28.70
2019-04-16T08:41:44.440Z,23.90
2019-04-16T08:44:14.009Z,23.13
2019-04-16T08:46:43.532Z,28.83
2019-04-16T08:49:14.791Z,21.33
2019-04-16T08:51:44.364Z,20.07
2019-04-16T08:54:17.721Z,20.60
2019-04-16T08:56:45.683Z,19.20
2019-04-16T08:59:15.385Z,24.87
2019-04-16T09:01:44.966Z,20.80
2019-04-16T09:04:14.520Z,26.70
2019-04-16T09:06:46.340Z,24.33
2019-04-16T09:09:25.836Z,26.80
2019-04-16T09:11:56.978Z,23.30
2019-04-16T09:14:28.682Z,23.83
2019-04-16T09:16:59.944Z,20.13
2019-04-16T09:19:29.429Z,23.83
2019-04-16T09:21:58.952Z,24.20
2019-04-16T09:24:46.080Z,20.97
2019-04-16T09:27:28.616Z,23.63
2019-04-16T09:30:10.283Z,30.67
2019-04-16T09:32:44.067Z,21.83
2019-04-16T09:35:20.841Z,22.67
2019-04-16T09:37:55.052Z,21.30
2019-04-16T09:40:42.215Z,27.70
2019-04-16T09:43:25.604Z,24.17
2019-04-16T09:45:55.200Z,27.00
2019-04-16T09:48:26.364Z,21.60
2019-04-16T09:50:55.910Z,32.17
2019-04-16T09:53:33.615Z,24.50
2019-04-16T09:55:56.659Z,27.37
2019-04-16T09:58:26.207Z,24.00
2019-04-16T10:01:00.073Z,27.60
2019-04-16T10:03:31.408Z,23.80
2019-04-16T10:06:00.915Z,28.93
2019-04-16T10:08:30.458Z,30.83
2019-04-16T10:11:02.721Z,24.17
2019-04-16T10:13:35.719Z,28.57
2019-04-16T10:16:02.404Z,21.60
2019-04-16T10:18:34.986Z,23.90
2019-04-16T10:21:03.164Z,23.70
2019-04-16T10:23:41.195Z,24.77
2019-04-16T10:26:10.804Z,23.57
2019-04-16T10:28:44.244Z,26.80
2019-04-16T10:31:15.409Z,28.90
2019-04-16T10:33:45.022Z,27.33
2019-04-16T10:36:14.646Z,31.13
2019-04-16T10:38:57.722Z,35.93
2019-04-16T10:41:31.814Z,25.07
2019-04-16T10:44:08.726Z,25.10
2019-04-16T10:46:48.716Z,27.50
2019-04-16T10:49:19.914Z,27.80
2019-04-16T10:51:57.013Z,26.00
2019-04-16T10:54:28.322Z,31.23
2019-04-16T10:57:05.634Z,28.33
2019-04-16T10:59:36.832Z,27.93
2019-04-16T11:02:10.650Z,28.30
2019-04-16T11:04:44.018Z,24.67
2019-04-16T11:07:15.329Z,25.87
2019-04-16T11:09:44.889Z,26.30
2019-04-16T11:12:14.444Z,28.27
2019-04-16T11:14:43.967Z,33.37
2019-04-16T11:17:13.538Z,28.90
2019-04-16T11:19:43.097Z,29.50
2019-04-16T11:22:12.605Z,31.43
2019-04-16T11:24:42.269Z,30.80
2019-04-16T11:27:11.764Z,27.03
2019-04-16T11:29:42.062Z,32.90
2019-04-16T11:32:13.898Z,30.83
2019-04-16T11:34:43.511Z,28.23
2019-04-16T11:37:13.078Z,27.93
2019-04-16T11:39:42.642Z,27.20
2019-04-16T11:42:12.283Z,27.90
2019-04-16T11:44:41.930Z,27.27
2019-04-16T11:47:11.550Z,30.20
2019-04-16T11:49:41.160Z,30.90
2019-04-16T11:52:11.102Z,33.27
2019-04-16T11:54:40.649Z,33.40
2019-04-16T11:57:12.970Z,30.07
2019-04-16T11:59:41.497Z,31.20
2019-04-16T12:02:12.652Z,31.07
2019-04-16T12:04:43.875Z,28.10
2019-04-16T12:07:15.108Z,27.53
2019-04-16T12:09:57.860Z,44.73
2019-04-16T12:12:31.765Z,31.80
2019-04-16T12:15:02.998Z,28.50
2019-04-16T12:17:37.630Z,28.47
2019-04-16T12:20:15.586Z,33.60
2019-04-16T12:22:47.134Z,30.87
2019-04-16T12:25:34.356Z,28.80
2019-04-16T12:28:11.992Z,32.13
2019-04-16T12:30:42.637Z,29.53
2019-04-16T12:33:14.588Z,33.20
2019-04-16T12:35:48.456Z,33.97
2019-04-16T12:38:22.416Z,31.47
2019-04-16T12:41:02.578Z,31.37
2019-04-16T12:43:36.651Z,32.80
2019-04-16T12:46:17.159Z,29.30
2019-04-16T12:48:54.377Z,34.27
2019-04-16T12:51:31.514Z,27.63
2019-04-16T12:54:11.690Z,30.00
2019-04-16T12:56:48.841Z,33.23
2019-04-16T12:59:29.141Z,27.50
2019-04-16T13:02:03.296Z,34.20
2019-04-16T13:04:50.532Z,28.47
2019-04-16T13:07:21.741Z,30.10
2019-04-16T13:10:07.710Z,28.50
2019-04-16T13:12:54.603Z,38.00
2019-04-16T13:15:25.766Z,34.17
2019-04-16T13:18:12.287Z,31.00
2019-04-16T13:21:03.870Z,26.83
2019-04-16T13:23:31.525Z,30.77
2019-04-16T13:26:05.464Z,32.70
2019-04-16T13:28:34.949Z,33.77
2019-04-16T13:31:04.505Z,31.23
2019-04-16T13:33:34.001Z,29.20
2019-04-16T13:36:03.542Z,36.30
2019-04-16T13:38:43.424Z,33.57
2019-04-16T13:41:12.961Z,35.10
2019-04-16T13:44:00.382Z,35.40
2019-04-16T13:46:30.262Z,30.83
2019-04-16T13:49:01.425Z,31.97
2019-04-16T13:51:35.492Z,33.17
2019-04-16T13:54:12.717Z,32.43
2019-04-16T13:56:50.130Z,34.30
2019-04-16T13:59:22.576Z,29.20
2019-04-16T14:01:53.720Z,31.37
2019-04-16T14:04:23.248Z,32.50
2019-04-16T14:06:52.921Z,31.97
2019-04-16T14:09:22.433Z,28.50
2019-04-16T14:11:52.103Z,29.80
2019-04-16T14:14:22.676Z,35.23
2019-04-16T14:16:52.482Z,30.53
2019-04-16T14:19:22.013Z,35.00
2019-04-16T14:21:51.534Z,30.07
2019-04-16T14:24:21.136Z,32.20
2019-04-16T14:26:50.629Z,35.77
2019-04-16T14:29:20.675Z,37.50
2019-04-16T14:31:50.324Z,33.13
2019-04-16T14:34:21.484Z,33.40
2019-04-16T14:36:53.195Z,36.67
2019-04-16T14:39:26.914Z,32.20
2019-04-16T14:41:56.439Z,37.57
2019-04-16T14:44:27.584Z,39.10
2019-04-16T14:47:00.041Z,34.70
2019-04-16T14:49:28.360Z,34.27
2019-04-16T14:52:01.817Z,35.63
2019-04-16T14:54:30.742Z,33.13
2019-04-16T14:57:01.887Z,40.53
2019-04-16T14:59:44.775Z,34.53
2019-04-16T15:02:15.938Z,37.30
2019-04-16T15:05:05.510Z,40.67
2019-04-16T15:07:36.733Z,45.27
2019-04-16T15:10:14.130Z,32.13
2019-04-16T15:12:48.406Z,34.07
2019-04-16T15:15:31.725Z,41.87
2019-04-16T15:18:21.023Z,40.10
2019-04-16T15:20:52.203Z,30.20
2019-04-16T15:23:23.397Z,33.03
2019-04-16T15:26:10.455Z,31.53
2019-04-16T15:28:47.056Z,40.13
2019-04-16T15:31:33.698Z,34.70
2019-04-16T15:34:14.022Z,42.83
2019-04-16T15:36:49.882Z,28.60
2019-04-16T15:39:18.121Z,36.77
2019-04-16T15:42:05.567Z,31.50
2019-04-16T15:44:36.784Z,33.60
2019-04-16T15:47:19.834Z,29.20
2019-04-16T15:49:56.045Z,32.53
2019-04-16T15:52:32.589Z,32.77
2019-04-16T15:55:18.338Z,32.87
2019-04-16T15:57:55.493Z,33.53
2019-04-16T16:00:38.847Z,37.00
2019-04-16T16:03:10.056Z,30.63
2019-04-16T16:05:46.957Z,31.80
2019-04-16T16:08:35.876Z,30.97
2019-04-16T16:11:07.280Z,34.47
2019-04-16T16:13:37.061Z,28.00
2019-04-16T16:16:09.888Z,31.73
2019-04-16T16:18:38.743Z,34.87
2019-04-16T16:21:08.977Z,37.23
2019-04-16T16:23:38.509Z,39.47
2019-04-16T16:26:08.073Z,33.73
2019-04-16T16:28:37.572Z,31.23
2019-04-16T16:31:07.223Z,35.43
2019-04-16T16:33:36.734Z,31.43
2019-04-16T16:36:06.253Z,30.60
2019-04-16T16:38:36.250Z,29.40
2019-04-16T16:41:05.795Z,44.60
2019-04-16T16:43:35.693Z,26.50
2019-04-16T16:46:18.673Z,31.30
2019-04-16T16:48:49.141Z,34.90
2019-04-16T16:51:22.872Z,36.97
2019-04-16T16:54:07.993Z,32.80
2019-04-16T16:56:49.999Z,37.90
2019-04-16T16:59:21.143Z,34.67
2019-04-16T17:01:55.447Z,43.43
2019-04-16T17:04:26.685Z,31.90
2019-04-16T17:06:56.172Z,34.90
2019-04-16T17:09:30.380Z,36.60
2019-04-16T17:12:00.765Z,42.07
2019-04-16T17:14:30.265Z,38.73
2019-04-16T17:17:11.806Z,38.30
2019-04-16T17:19:31.178Z,31.27
2019-04-16T17:22:00.962Z,33.33
2019-04-16T17:24:30.576Z,30.73
2019-04-16T17:27:00.142Z,30.83
2019-04-16T17:29:29.668Z,31.23
2019-04-16T17:31:59.212Z,36.70
2019-04-16T17:34:28.822Z,35.50
2019-04-16T17:36:58.501Z,43.67
2019-04-16T17:39:45.509Z,41.63
2019-04-16T17:42:17.657Z,34.73
2019-04-16T17:44:54.565Z,29.90
2019-04-16T17:47:42.916Z,30.90
2019-04-16T17:50:16.766Z,30.97
2019-04-16T17:52:57.106Z,31.80
2019-04-16T17:55:35.723Z,42.43
2019-04-16T17:58:06.950Z,33.20
2019-04-16T18:00:38.455Z,31.43
2019-04-16T18:03:12.153Z,33.73
2019-04-16T18:05:43.420Z,34.27
2019-04-16T18:08:30.810Z,36.77
2019-04-16T18:11:10.918Z,33.50
2019-04-16T18:13:45.091Z,25.57
2019-04-16T18:16:16.657Z,23.30
2019-04-16T18:18:57.944Z,18.93
2019-04-16T18:21:29.496Z,23.97
2019-04-16T18:24:15.901Z,16.60
2019-04-16T18:27:03.485Z,17.70
2019-04-16T18:29:34.691Z,16.70
2019-04-16T18:32:05.824Z,17.63
2019-04-16T18:34:46.032Z,17.20
2019-04-16T18:37:24.201Z,12.67
2019-04-16T18:40:13.572Z,13.33
2019-04-16T18:43:02.859Z,14.00
2019-04-16T18:45:52.314Z,14.43
2019-04-16T18:48:22.693Z,20.70
2019-04-16T18:50:52.485Z,14.80
2019-04-16T18:53:21.974Z,13.17
2019-04-16T18:55:51.511Z,13.63
2019-04-16T18:58:21.047Z,15.40
2019-04-16T19:00:52.729Z,16.63
2019-04-16T19:03:22.396Z,17.80
2019-04-16T19:05:52.430Z,19.23
2019-04-16T19:08:21.972Z,17.23
2019-04-16T19:10:51.498Z,15.43
2019-04-16T19:13:21.271Z,19.10
2019-04-16T19:15:50.843Z,17.70
2019-04-16T19:18:20.545Z,11.63
2019-04-16T19:20:51.767Z,15.40
2019-04-16T19:23:22.209Z,13.53
2019-04-16T19:25:54.952Z,35.03
2019-04-16T19:28:23.909Z,18.50
2019-04-16T19:30:53.399Z,16.00
2019-04-16T19:33:22.882Z,25.47
2019-04-16T19:35:52.884Z,8.90
2019-04-16T19:38:23.482Z,12.13
2019-04-16T19:40:53.218Z,8.13
2019-04-16T19:43:22.863Z,9.87
2019-04-16T19:45:52.401Z,10.43
2019-04-16T19:48:34.657Z,10.13
2019-04-16T19:50:53.452Z,8.47
2019-04-16T19:53:22.932Z,13.23
2019-04-16T19:55:52.525Z,6.63
2019-04-16T19:58:22.025Z,5.73
2019-04-16T20:00:53.931Z,4.73
2019-04-16T20:03:22.836Z,4.00
2019-04-16T20:05:52.363Z,4.57
2019-04-16T20:08:21.841Z,4.27
2019-04-16T20:10:51.441Z,4.70
2019-04-16T20:13:20.984Z,3.80
2019-04-16T20:15:50.533Z,4.77
2019-04-16T20:18:21.745Z,3.80
2019-04-16T20:20:53.080Z,6.07
2019-04-16T20:23:22.560Z,7.13
2019-04-16T20:25:52.106Z,4.30
2019-04-16T20:28:21.704Z,4.83
2019-04-16T20:30:57.370Z,5.80
2019-04-16T20:33:22.519Z,6.30
2019-04-16T20:35:52.068Z,5.00
2019-04-16T20:38:21.620Z,6.57
2019-04-16T20:40:51.264Z,5.80
2019-04-16T20:43:20.842Z,8.60
2019-04-16T20:45:50.432Z,5.07
2019-04-16T20:48:19.981Z,7.47
2019-04-16T20:50:52.804Z,6.20
2019-04-16T20:53:20.812Z,4.97
2019-04-16T20:55:50.888Z,5.23
2019-04-16T20:58:20.418Z,4.20
2019-04-16T21:00:51.554Z,4.90
2019-04-16T21:03:22.606Z,6.87
2019-04-16T21:05:59.160Z,4.63
2019-04-16T21:08:25.324Z,7.00
2019-04-16T21:10:58.901Z,5.57
2019-04-16T21:13:27.174Z,3.70
2019-04-16T21:16:01.339Z,7.57
2019-04-16T21:18:29.628Z,3.73
2019-04-16T21:20:59.448Z,4.70
2019-04-16T21:23:31.914Z,6.10
2019-04-16T21:26:00.180Z,4.10
2019-04-16T21:28:34.130Z,4.83
2019-04-16T21:31:08.269Z,4.53
2019-04-16T21:33:39.498Z,5.10
2019-04-16T21:36:13.126Z,3.47
2019-04-16T21:38:45.226Z,4.10
2019-04-16T21:41:15.513Z,3.80
2019-04-16T21:43:45.071Z,4.43
2019-04-16T21:46:20.122Z,3.53
2019-04-16T21:48:47.192Z,4.40
2019-04-16T21:51:19.516Z,6.37
2019-04-16T21:53:47.904Z,5.20
2019-04-16T21:56:17.670Z,4.50
2019-04-16T21:58:50.183Z,6.80
2019-04-16T22:01:28.776Z,8.67
2019-04-16T22:04:00.312Z,7.50
2019-04-16T22:06:29.873Z,5.80
2019-04-16T22:09:03.241Z,7.90
2019-04-16T22:11:30.588Z,4.60
2019-04-16T22:14:00.239Z,7.40
2019-04-16T22:16:30.595Z,6.80
2019-04-16T22:19:00.164Z,15.97
2019-04-16T22:21:30.052Z,9.33
2019-04-16T22:23:59.808Z,7.10
2019-04-16T22:26:34.218Z,6.17
2019-04-16T22:29:00.537Z,7.83
2019-04-16T22:31:30.228Z,6.50
2019-04-16T22:34:00.040Z,4.93
2019-04-16T22:36:29.555Z,6.87
2019-04-16T22:39:01.033Z,4.60
2019-04-16T22:41:47.065Z,9.00
2019-04-16T22:44:21.369Z,6.83
2019-04-16T22:46:52.552Z,7.20
2019-04-16T22:49:23.286Z,7.50
2019-04-16T22:51:52.764Z,5.53
2019-04-16T22:54:22.271Z,6.97
2019-04-16T22:56:53.399Z,9.03
2019-04-16T22:59:22.877Z,16.13
2019-04-16T23:01:53.346Z,7.83
2019-04-16T23:04:25.835Z,7.20
2019-04-16T23:06:54.362Z,7.63
2019-04-16T23:09:25.505Z,6.77
2019-04-16T23:11:55.747Z,8.17
2019-04-16T23:14:26.102Z,9.07
2019-04-16T23:16:55.650Z,7.07
2019-04-16T23:19:25.165Z,7.93
2019-04-16T23:21:55.128Z,8.40
2019-04-16T23:24:24.653Z,7.17
2019-04-16T23:26:54.140Z,8.83
2019-04-16T23:29:23.632Z,7.30
2019-04-16T23:31:56.053Z,8.53
2019-04-16T23:34:24.340Z,5.60
2019-04-16T23:36:53.841Z,8.80
2019-04-16T23:39:23.372Z,6.20
2019-04-16T23:41:52.856Z,10.73
2019-04-16T23:44:25.944Z,9.27
2019-04-16T23:46:57.076Z,25.03
2019-04-16T23:49:37.207Z,7.80
2019-04-16T23:52:11.347Z,8.30
2019-04-16T23:55:00.427Z,14.10
2019-04-16T23:57:47.697Z,7.50
